Carnes, Mississippi
Current Conditions -  °F | °C
As of 4:53 PM on Tuesday 27 Jan 2015 (Local Time) from KHBG Reporting Station
Clear Clear  
Wind Chill: 67°   Ceiling: Unl
Heat Index: 67°   Visibility: 10mi
Dew Point: 30°   Wind: 12mph
Humidity: 25%   Direction: 330°NNW
Pressure: 30.08"   Gusts: NA
Location:  31.0601°N, 89.4815°W
Report Text: KHBG 272253Z AUTO 33010KT 10SM CLR 19/M01 A3008 RMK AO2 SLP183 T01941011
Loading
Personal Weather Stations






























Interactive Weather Map New forecast layout! Learn more

10-Day Weather Forecast

Advertisements
Track Severe Weather on mobile